createdAt,value
2018-12-31T00:01:35.499Z,4.30
2018-12-31T00:04:03.930Z,4.40
2018-12-31T00:06:32.362Z,4.40
2018-12-31T00:09:00.785Z,4.40
2018-12-31T00:11:29.198Z,4.40
2018-12-31T00:13:57.634Z,4.50
2018-12-31T00:16:26.038Z,4.50
2018-12-31T00:18:54.457Z,4.40
2018-12-31T00:21:22.879Z,4.40
2018-12-31T00:23:51.322Z,4.40
2018-12-31T00:26:19.745Z,4.50
2018-12-31T00:28:48.162Z,4.40
2018-12-31T00:31:16.605Z,4.40
2018-12-31T00:33:45.026Z,4.50
2018-12-31T00:36:13.451Z,4.50
2018-12-31T00:38:41.874Z,4.40
2018-12-31T00:41:10.534Z,4.50
2018-12-31T00:43:38.964Z,4.50
2018-12-31T00:46:07.415Z,4.50
2018-12-31T00:48:35.831Z,4.50
2018-12-31T00:51:04.490Z,4.50
2018-12-31T00:53:32.898Z,4.50
2018-12-31T00:56:01.322Z,4.50
2018-12-31T00:58:29.745Z,4.50
2018-12-31T01:00:58.180Z,4.60
2018-12-31T01:03:26.601Z,4.60
2018-12-31T01:05:55.022Z,4.60
2018-12-31T01:08:23.443Z,4.60
2018-12-31T01:10:51.866Z,4.60
2018-12-31T01:13:20.331Z,4.60
2018-12-31T01:15:48.814Z,4.60
2018-12-31T01:18:17.250Z,4.60
2018-12-31T01:20:45.665Z,4.60
2018-12-31T01:23:14.281Z,4.60
2018-12-31T01:25:43.231Z,4.70
2018-12-31T01:28:11.786Z,4.70
2018-12-31T01:30:40.214Z,4.70
2018-12-31T01:33:08.634Z,4.70
2018-12-31T01:35:37.046Z,4.70
2018-12-31T01:38:05.464Z,4.70
2018-12-31T01:40:34.135Z,4.70
2018-12-31T01:43:02.568Z,4.80
2018-12-31T01:45:30.981Z,4.80
2018-12-31T01:47:59.407Z,4.80
2018-12-31T01:50:27.816Z,4.80
2018-12-31T01:52:56.259Z,4.80
2018-12-31T01:55:24.711Z,4.80
2018-12-31T01:57:53.138Z,4.80
2018-12-31T02:00:21.551Z,4.80
2018-12-31T02:02:49.968Z,4.80
2018-12-31T02:05:18.387Z,4.90
2018-12-31T02:07:46.818Z,4.80
2018-12-31T02:10:15.222Z,4.90
2018-12-31T02:12:43.672Z,4.90
2018-12-31T02:15:12.104Z,4.90
2018-12-31T02:17:40.521Z,4.90
2018-12-31T02:20:08.940Z,4.90
2018-12-31T02:22:37.349Z,4.90
2018-12-31T02:25:06.002Z,4.90
2018-12-31T02:27:34.421Z,4.90
2018-12-31T02:30:02.844Z,5.00
2018-12-31T02:32:31.259Z,5.00
2018-12-31T02:34:59.676Z,5.00
2018-12-31T02:37:28.102Z,5.00
2018-12-31T02:39:56.596Z,5.00
2018-12-31T02:42:25.012Z,5.00
2018-12-31T02:44:53.420Z,5.10
2018-12-31T02:47:21.974Z,5.00
2018-12-31T02:49:50.373Z,5.10
2018-12-31T02:52:18.780Z,5.10
2018-12-31T02:54:47.218Z,5.10
2018-12-31T02:57:15.630Z,5.10
2018-12-31T02:59:44.071Z,5.10
2018-12-31T03:02:12.506Z,5.10
2018-12-31T03:04:40.917Z,5.20
2018-12-31T03:07:09.365Z,5.20
2018-12-31T03:09:37.846Z,5.20
2018-12-31T03:12:06.266Z,5.20
2018-12-31T03:14:34.684Z,5.30
2018-12-31T03:17:03.104Z,5.20
2018-12-31T03:19:31.526Z,5.20
2018-12-31T03:21:59.960Z,5.30
2018-12-31T03:24:28.391Z,5.30
2018-12-31T03:26:56.818Z,5.30
2018-12-31T03:29:25.244Z,5.30
2018-12-31T03:31:53.655Z,5.30
2018-12-31T03:34:22.077Z,5.30
2018-12-31T03:36:50.500Z,5.30
2018-12-31T03:39:18.919Z,5.30
2018-12-31T03:41:47.574Z,5.30
2018-12-31T03:44:15.993Z,5.30
2018-12-31T03:46:44.405Z,5.30
2018-12-31T03:49:12.849Z,5.30
2018-12-31T03:51:41.268Z,5.30
2018-12-31T03:54:09.710Z,5.30
2018-12-31T03:56:38.148Z,5.30
2018-12-31T03:59:06.595Z,5.30
2018-12-31T04:01:35.014Z,5.20
2018-12-31T04:04:03.454Z,5.30
2018-12-31T04:06:31.941Z,5.30
2018-12-31T04:09:00.370Z,5.20
2018-12-31T04:11:28.791Z,5.20
2018-12-31T04:13:57.242Z,5.20
2018-12-31T04:16:25.651Z,5.20
2018-12-31T04:18:54.105Z,5.30
2018-12-31T04:21:22.523Z,5.30
2018-12-31T04:23:50.970Z,5.30
2018-12-31T04:26:19.396Z,5.30
2018-12-31T04:28:47.838Z,5.20
2018-12-31T04:31:16.245Z,5.30
2018-12-31T04:33:44.744Z,5.30
2018-12-31T04:36:13.144Z,5.30
2018-12-31T04:38:41.586Z,5.30
2018-12-31T04:41:09.991Z,5.20
2018-12-31T04:43:38.643Z,5.20
2018-12-31T04:46:07.053Z,5.30
2018-12-31T04:48:35.471Z,5.30
2018-12-31T04:51:03.879Z,5.30
2018-12-31T04:53:32.291Z,5.30
2018-12-31T04:56:00.715Z,5.30
2018-12-31T04:58:29.330Z,5.30
2018-12-31T05:00:57.842Z,5.30
2018-12-31T05:03:26.255Z,5.30
2018-12-31T05:05:54.698Z,5.30
2018-12-31T05:08:23.116Z,5.30
2018-12-31T05:10:51.763Z,5.30
2018-12-31T05:13:20.182Z,5.30
2018-12-31T05:15:48.606Z,5.30
2018-12-31T05:18:17.027Z,5.30
2018-12-31T05:20:45.456Z,5.30
2018-12-31T05:23:13.877Z,5.30
2018-12-31T05:25:42.314Z,5.30
2018-12-31T05:28:10.741Z,5.30
2018-12-31T05:30:39.162Z,5.30
2018-12-31T05:33:07.576Z,5.30
2018-12-31T05:35:36.003Z,5.30
2018-12-31T05:38:04.414Z,5.40
2018-12-31T05:40:32.829Z,5.40
2018-12-31T05:43:01.251Z,5.40
2018-12-31T05:45:29.673Z,5.40
2018-12-31T05:47:58.124Z,5.50
2018-12-31T05:50:26.531Z,5.50
2018-12-31T05:52:54.953Z,5.50
2018-12-31T05:55:23.392Z,5.40
2018-12-31T05:57:51.815Z,5.40
2018-12-31T06:00:20.234Z,5.40
2018-12-31T06:02:48.662Z,5.40
2018-12-31T06:05:17.324Z,5.50
2018-12-31T06:07:45.748Z,5.50
2018-12-31T06:10:14.171Z,5.50
2018-12-31T06:12:42.600Z,5.40
2018-12-31T06:15:11.018Z,5.40
2018-12-31T06:17:39.434Z,5.40
2018-12-31T06:20:07.879Z,5.40
2018-12-31T06:22:36.291Z,5.40
2018-12-31T06:25:04.960Z,5.40
2018-12-31T06:27:33.398Z,5.40
2018-12-31T06:30:02.282Z,5.40
2018-12-31T06:32:30.919Z,5.50
2018-12-31T06:34:59.332Z,5.50
2018-12-31T06:37:27.750Z,5.50
2018-12-31T06:39:56.164Z,5.50
2018-12-31T06:42:24.610Z,5.50
2018-12-31T06:44:53.025Z,5.50
2018-12-31T06:47:21.462Z,5.50
2018-12-31T06:49:49.880Z,5.50
2018-12-31T06:52:18.351Z,5.50
2018-12-31T06:54:46.756Z,5.50
2018-12-31T06:57:15.230Z,5.40
2018-12-31T06:59:43.732Z,5.50
2018-12-31T07:02:12.149Z,5.50
2018-12-31T07:04:40.596Z,5.50
2018-12-31T07:07:09.038Z,5.50
2018-12-31T07:09:37.446Z,5.50
2018-12-31T07:12:05.892Z,5.50
2018-12-31T07:14:34.316Z,5.50
2018-12-31T07:17:02.736Z,5.50
2018-12-31T07:19:31.157Z,5.50
2018-12-31T07:21:59.610Z,5.50
2018-12-31T07:24:28.057Z,5.50
2018-12-31T07:26:56.471Z,5.50
2018-12-31T07:29:24.914Z,5.50
2018-12-31T07:31:53.331Z,5.40
2018-12-31T07:34:21.769Z,5.50
2018-12-31T07:36:50.184Z,5.50
2018-12-31T07:39:19.544Z,5.50
2018-12-31T07:41:47.964Z,5.50
2018-12-31T07:44:16.402Z,5.50
2018-12-31T07:46:44.843Z,5.40
2018-12-31T07:49:13.263Z,5.40
2018-12-31T07:51:41.705Z,5.50
2018-12-31T07:54:10.135Z,5.50
2018-12-31T07:56:38.578Z,5.50
2018-12-31T07:59:07.016Z,5.50
2018-12-31T08:01:35.455Z,5.50
2018-12-31T08:04:03.907Z,5.50
2018-12-31T08:06:32.324Z,5.50
2018-12-31T08:09:00.824Z,5.60
2018-12-31T08:11:29.283Z,5.60
2018-12-31T08:13:57.698Z,5.50
2018-12-31T08:16:26.113Z,5.50
2018-12-31T08:18:54.552Z,5.60
2018-12-31T08:21:22.974Z,5.60
2018-12-31T08:23:51.403Z,5.60
2018-12-31T08:26:19.855Z,5.60
2018-12-31T08:28:48.293Z,5.60
2018-12-31T08:31:16.956Z,5.60
2018-12-31T08:33:45.383Z,5.60
2018-12-31T08:36:13.840Z,5.70
2018-12-31T08:38:42.265Z,5.70
2018-12-31T08:41:10.694Z,5.60
2018-12-31T08:43:39.115Z,5.70
2018-12-31T08:46:07.545Z,5.70
2018-12-31T08:48:35.974Z,5.70
2018-12-31T08:51:04.390Z,5.80
2018-12-31T08:53:32.831Z,5.80
2018-12-31T08:56:01.255Z,5.80
2018-12-31T08:58:29.705Z,5.70
2018-12-31T09:00:58.136Z,5.80
2018-12-31T09:03:26.562Z,5.80
2018-12-31T09:05:54.997Z,5.80
2018-12-31T09:08:23.429Z,5.80
2018-12-31T09:10:51.858Z,5.80
2018-12-31T09:13:20.277Z,5.90
2018-12-31T09:15:48.702Z,5.90
2018-12-31T09:18:17.131Z,5.90
2018-12-31T09:20:45.558Z,5.90
2018-12-31T09:23:14.892Z,5.90
2018-12-31T09:25:43.327Z,6.00
2018-12-31T09:28:11.748Z,5.90
2018-12-31T09:30:40.168Z,6.00
2018-12-31T09:33:08.580Z,6.00
2018-12-31T09:35:37.010Z,6.00
2018-12-31T09:38:05.437Z,6.10
2018-12-31T09:40:33.873Z,6.10
2018-12-31T09:43:02.299Z,6.10
2018-12-31T09:45:30.710Z,6.20
2018-12-31T09:47:59.143Z,6.30
2018-12-31T09:50:27.558Z,6.30
2018-12-31T09:52:56.078Z,6.20
2018-12-31T09:55:24.499Z,6.30
2018-12-31T09:57:52.914Z,6.30
2018-12-31T10:00:21.331Z,6.30
2018-12-31T10:02:49.765Z,6.30
2018-12-31T10:05:18.191Z,6.40
2018-12-31T10:07:46.626Z,6.40
2018-12-31T10:10:15.039Z,6.30
2018-12-31T10:12:43.461Z,6.20
2018-12-31T10:15:11.907Z,6.20
2018-12-31T10:17:40.338Z,6.20
2018-12-31T10:20:08.774Z,6.20
2018-12-31T10:22:37.262Z,6.20
2018-12-31T10:25:05.711Z,6.10
2018-12-31T10:27:34.126Z,6.10
2018-12-31T10:30:02.577Z,6.10
2018-12-31T10:32:31.100Z,6.20
2018-12-31T10:34:59.554Z,6.20
2018-12-31T10:37:27.990Z,6.20
2018-12-31T10:39:56.410Z,6.20
2018-12-31T10:42:24.838Z,6.20
2018-12-31T10:44:53.264Z,6.20
2018-12-31T10:47:21.687Z,6.30
2018-12-31T10:49:50.109Z,6.30
2018-12-31T10:52:18.527Z,6.30
2018-12-31T10:54:46.946Z,6.30
2018-12-31T10:57:17.838Z,6.30
2018-12-31T10:59:46.371Z,6.20
2018-12-31T11:02:14.789Z,6.30
2018-12-31T11:04:43.230Z,6.30
2018-12-31T11:07:11.663Z,6.20
2018-12-31T11:09:40.086Z,6.30
2018-12-31T11:12:09.425Z,6.30
2018-12-31T11:14:37.851Z,6.40
2018-12-31T11:17:06.302Z,6.40
2018-12-31T11:19:34.726Z,6.40
2018-12-31T11:22:03.139Z,6.40
2018-12-31T11:24:31.563Z,6.40
2018-12-31T11:27:00.896Z,6.40
2018-12-31T11:29:29.330Z,6.40
2018-12-31T11:31:57.766Z,6.30
2018-12-31T11:34:26.178Z,6.30
2018-12-31T11:36:54.594Z,6.20
2018-12-31T11:39:23.021Z,6.10
2018-12-31T11:41:51.431Z,6.00
2018-12-31T11:44:19.855Z,6.00
2018-12-31T11:46:48.288Z,5.90
2018-12-31T11:49:16.706Z,5.90
2018-12-31T11:51:45.134Z,5.90
2018-12-31T11:54:13.658Z,5.90
2018-12-31T11:56:42.077Z,5.90
2018-12-31T11:59:10.527Z,5.90
2018-12-31T12:01:39.194Z,6.00
2018-12-31T12:04:07.617Z,6.00
2018-12-31T12:06:36.050Z,6.00
2018-12-31T12:09:06.351Z,6.00
2018-12-31T12:11:34.814Z,6.00
2018-12-31T12:14:03.262Z,5.90
2018-12-31T12:16:31.679Z,6.00
2018-12-31T12:19:00.105Z,6.00
2018-12-31T12:21:28.558Z,6.10
2018-12-31T12:23:56.992Z,6.00
2018-12-31T12:26:25.426Z,6.00
2018-12-31T12:28:53.851Z,6.00
2018-12-31T12:31:22.261Z,6.00
2018-12-31T12:33:50.851Z,6.00
2018-12-31T12:36:19.305Z,6.10
2018-12-31T12:38:47.721Z,6.10
2018-12-31T12:41:16.153Z,6.10
2018-12-31T12:43:44.573Z,6.20
2018-12-31T12:46:13.399Z,6.20
2018-12-31T12:48:41.835Z,6.20
2018-12-31T12:51:10.322Z,6.20
2018-12-31T12:53:38.878Z,6.30
2018-12-31T12:56:07.282Z,6.30
2018-12-31T12:58:36.465Z,6.30
2018-12-31T13:01:04.978Z,6.30
2018-12-31T13:03:33.506Z,6.30
2018-12-31T13:06:01.935Z,6.30
2018-12-31T13:08:30.483Z,6.30
2018-12-31T13:10:59.296Z,6.30
2018-12-31T13:13:28.695Z,6.40
2018-12-31T13:15:57.105Z,6.40
2018-12-31T13:18:25.567Z,6.50
2018-12-31T13:20:53.999Z,6.50
2018-12-31T13:23:22.618Z,6.50
2018-12-31T13:25:51.058Z,6.50
2018-12-31T13:28:21.790Z,6.40
2018-12-31T13:30:50.218Z,6.30
2018-12-31T13:33:18.646Z,6.30
2018-12-31T13:35:47.234Z,6.30
2018-12-31T13:38:15.651Z,6.30
2018-12-31T13:40:44.107Z,6.30
2018-12-31T13:43:12.521Z,6.40
2018-12-31T13:45:40.949Z,6.30
2018-12-31T13:48:09.366Z,6.30
2018-12-31T13:50:37.843Z,6.30
2018-12-31T13:53:06.320Z,6.30
2018-12-31T13:55:34.810Z,6.30
2018-12-31T13:58:03.298Z,6.20
2018-12-31T14:00:51.086Z,6.20
2018-12-31T14:03:19.847Z,6.20
2018-12-31T14:05:48.427Z,6.30
2018-12-31T14:08:16.846Z,6.20
2018-12-31T14:10:45.533Z,6.30
2018-12-31T14:13:13.987Z,6.30
2018-12-31T14:15:42.420Z,6.40
2018-12-31T14:18:10.857Z,6.30
2018-12-31T14:20:39.278Z,6.40
2018-12-31T14:23:07.690Z,6.30
2018-12-31T14:25:36.140Z,6.30
2018-12-31T14:28:05.145Z,6.30
2018-12-31T14:30:33.618Z,6.40
2018-12-31T14:33:02.118Z,6.30
2018-12-31T14:35:30.562Z,6.30
2018-12-31T14:37:59.061Z,6.30
2018-12-31T14:40:27.511Z,6.30
2018-12-31T14:42:55.946Z,6.20
2018-12-31T14:45:24.427Z,6.20
2018-12-31T14:47:52.866Z,6.20
2018-12-31T14:50:21.293Z,6.20
2018-12-31T14:52:49.783Z,6.20
2018-12-31T14:55:18.202Z,6.20
2018-12-31T14:57:46.619Z,6.20
2018-12-31T15:00:15.061Z,6.10
2018-12-31T15:02:43.765Z,6.10
2018-12-31T15:05:12.195Z,6.10
2018-12-31T15:07:40.649Z,6.20
2018-12-31T15:10:09.070Z,6.20
2018-12-31T15:12:37.503Z,6.10
2018-12-31T15:15:07.534Z,6.10
2018-12-31T15:17:35.957Z,6.10
2018-12-31T15:20:06.427Z,6.10
2018-12-31T15:22:34.837Z,6.00
2018-12-31T15:25:03.269Z,6.00
2018-12-31T15:27:31.969Z,6.00
2018-12-31T15:30:00.394Z,6.00
2018-12-31T15:32:28.822Z,6.10
2018-12-31T15:34:57.233Z,6.10
2018-12-31T15:37:25.652Z,6.00
2018-12-31T15:39:54.108Z,6.00
2018-12-31T15:42:22.580Z,5.90
2018-12-31T15:44:51.159Z,5.90
2018-12-31T15:47:19.565Z,5.90
2018-12-31T15:49:48.229Z,5.90
2018-12-31T15:52:16.726Z,5.90
2018-12-31T15:54:45.184Z,6.00
2018-12-31T15:57:13.624Z,6.00
2018-12-31T15:59:42.034Z,6.00
2018-12-31T16:02:10.479Z,6.00
2018-12-31T16:04:38.925Z,6.00
2018-12-31T16:07:07.654Z,5.90
2018-12-31T16:09:36.126Z,6.00
2018-12-31T16:12:04.557Z,5.90
2018-12-31T16:14:33.009Z,5.90
2018-12-31T16:17:01.426Z,5.90
2018-12-31T16:19:30.059Z,5.90
2018-12-31T16:21:58.479Z,5.90
2018-12-31T16:24:26.926Z,5.80
2018-12-31T16:26:55.352Z,5.80
2018-12-31T16:29:23.774Z,5.80
2018-12-31T16:31:52.279Z,5.80
2018-12-31T16:34:21.659Z,5.80
2018-12-31T16:36:50.063Z,5.90
2018-12-31T16:39:18.492Z,5.80
2018-12-31T16:41:47.156Z,5.90
2018-12-31T16:44:15.682Z,5.80
2018-12-31T16:46:44.186Z,5.80
2018-12-31T16:49:13.033Z,5.80
2018-12-31T16:51:41.459Z,5.70
2018-12-31T16:54:09.897Z,5.80
2018-12-31T16:56:39.229Z,5.80
2018-12-31T16:59:07.662Z,5.80
2018-12-31T17:01:36.082Z,5.80
2018-12-31T17:04:04.520Z,5.80
2018-12-31T17:06:33.009Z,5.80
2018-12-31T17:09:01.486Z,5.80
2018-12-31T17:11:30.576Z,5.70
2018-12-31T17:13:59.059Z,5.80
2018-12-31T17:16:27.502Z,5.80
2018-12-31T17:18:55.940Z,5.80
2018-12-31T17:21:24.364Z,5.80
2018-12-31T17:23:52.788Z,5.80
2018-12-31T17:26:21.505Z,5.70
2018-12-31T17:28:50.883Z,5.80
2018-12-31T17:31:19.362Z,5.80
2018-12-31T17:33:47.881Z,5.80
2018-12-31T17:36:16.325Z,5.80
2018-12-31T17:38:44.808Z,5.70
2018-12-31T17:41:13.246Z,5.70
2018-12-31T17:43:41.678Z,5.70
2018-12-31T17:46:10.101Z,5.80
2018-12-31T17:48:38.552Z,5.70
2018-12-31T17:51:07.363Z,5.80
2018-12-31T17:53:35.840Z,5.80
2018-12-31T17:56:04.253Z,5.70
2018-12-31T17:58:32.699Z,5.70
2018-12-31T18:01:01.190Z,5.70
2018-12-31T18:03:29.606Z,5.70
2018-12-31T18:05:58.034Z,5.70
2018-12-31T18:08:26.462Z,5.70
2018-12-31T18:10:54.885Z,5.70
2018-12-31T18:13:23.302Z,5.70
2018-12-31T18:15:51.758Z,5.70
2018-12-31T18:18:20.182Z,5.70
2018-12-31T18:20:48.613Z,5.80
2018-12-31T18:23:17.119Z,5.80
2018-12-31T18:25:45.549Z,5.80
2018-12-31T18:28:13.996Z,5.70
2018-12-31T18:30:42.686Z,5.70
2018-12-31T18:33:11.135Z,5.60
2018-12-31T18:35:39.555Z,5.70
2018-12-31T18:38:08.000Z,5.60
2018-12-31T18:40:36.426Z,5.60
2018-12-31T18:43:05.230Z,5.60
2018-12-31T18:45:33.660Z,5.60
2018-12-31T18:48:02.082Z,5.60
2018-12-31T18:50:30.531Z,5.60
2018-12-31T18:52:59.228Z,5.50
2018-12-31T18:55:27.643Z,5.60
2018-12-31T18:57:56.083Z,5.60
2018-12-31T19:00:24.534Z,5.60
2018-12-31T19:02:52.958Z,5.60
2018-12-31T19:05:21.410Z,5.60
2018-12-31T19:07:49.835Z,5.60
2018-12-31T19:10:18.553Z,5.60
2018-12-31T19:12:46.978Z,5.60
2018-12-31T19:15:15.437Z,5.60
2018-12-31T19:17:43.851Z,5.60
2018-12-31T19:20:12.424Z,5.60
2018-12-31T19:22:41.122Z,5.60
2018-12-31T19:25:11.256Z,5.60
2018-12-31T19:27:39.850Z,5.60
2018-12-31T19:30:08.364Z,5.60
2018-12-31T19:32:36.790Z,5.60
2018-12-31T19:35:05.588Z,5.60
2018-12-31T19:37:34.010Z,5.50
2018-12-31T19:40:02.441Z,5.50
2018-12-31T19:42:30.892Z,5.60
2018-12-31T19:44:59.310Z,5.60
2018-12-31T19:47:29.542Z,5.60
2018-12-31T19:49:57.955Z,5.60
2018-12-31T19:52:26.384Z,5.60
2018-12-31T19:54:58.549Z,5.50
2018-12-31T19:57:24.972Z,5.70
2018-12-31T19:59:53.390Z,5.60
2018-12-31T20:02:23.591Z,5.60
2018-12-31T20:04:52.054Z,5.60
2018-12-31T20:07:20.549Z,5.60
2018-12-31T20:09:48.990Z,5.50
2018-12-31T20:12:17.416Z,5.60
2018-12-31T20:14:46.234Z,5.60
2018-12-31T20:17:14.693Z,5.50
2018-12-31T20:19:43.371Z,5.50
2018-12-31T20:22:12.723Z,5.50
2018-12-31T20:24:41.206Z,5.50
2018-12-31T20:27:09.646Z,5.50
2018-12-31T20:29:38.065Z,5.50
2018-12-31T20:32:06.495Z,5.50
2018-12-31T20:34:34.920Z,5.50
2018-12-31T20:37:03.346Z,5.50
2018-12-31T20:39:31.769Z,5.50
2018-12-31T20:42:00.521Z,5.60
2018-12-31T20:44:28.957Z,5.50
2018-12-31T20:46:57.445Z,5.50
2018-12-31T20:49:25.879Z,5.50
2018-12-31T20:51:54.314Z,5.50
2018-12-31T20:54:22.749Z,5.50
2018-12-31T20:56:51.547Z,5.50
2018-12-31T20:59:19.980Z,5.50
2018-12-31T21:01:48.481Z,5.40
2018-12-31T21:04:16.905Z,5.50
2018-12-31T21:06:45.318Z,5.50
2018-12-31T21:09:13.879Z,5.40
2018-12-31T21:11:42.306Z,5.50
2018-12-31T21:14:10.725Z,5.50
2018-12-31T21:16:39.170Z,5.50
2018-12-31T21:19:07.680Z,5.50
2018-12-31T21:21:36.130Z,5.50
2018-12-31T21:24:04.924Z,5.50
2018-12-31T21:26:33.362Z,5.50
2018-12-31T21:29:01.783Z,5.50
2018-12-31T21:31:30.243Z,5.50
2018-12-31T21:33:58.662Z,5.50
2018-12-31T21:36:27.185Z,5.50
2018-12-31T21:38:55.615Z,5.50
2018-12-31T21:41:24.051Z,5.40
2018-12-31T21:43:52.499Z,5.40
2018-12-31T21:46:20.918Z,5.40
2018-12-31T21:48:49.346Z,5.40
2018-12-31T21:51:18.160Z,5.40
2018-12-31T21:53:46.595Z,5.30
2018-12-31T21:56:15.028Z,5.30
2018-12-31T21:58:43.482Z,5.30
2018-12-31T22:01:11.898Z,5.30
2018-12-31T22:03:40.317Z,5.30
2018-12-31T22:06:08.737Z,5.20
2018-12-31T22:08:37.162Z,5.20
2018-12-31T22:11:05.606Z,5.20
2018-12-31T22:13:34.054Z,5.20
2018-12-31T22:16:02.493Z,5.20
2018-12-31T22:18:31.208Z,5.10
2018-12-31T22:20:59.773Z,5.10
2018-12-31T22:23:29.863Z,5.10
2018-12-31T22:25:58.277Z,5.10
2018-12-31T22:28:26.725Z,5.00
2018-12-31T22:30:55.143Z,5.10
2018-12-31T22:33:23.599Z,5.10
2018-12-31T22:35:52.023Z,5.10
2018-12-31T22:38:20.455Z,5.10
2018-12-31T22:40:48.876Z,5.00
2018-12-31T22:43:17.303Z,5.00
2018-12-31T22:45:45.723Z,5.00
2018-12-31T22:48:14.155Z,4.90
2018-12-31T22:50:42.656Z,4.90
2018-12-31T22:53:11.086Z,4.90
2018-12-31T22:55:39.506Z,4.90
2018-12-31T22:58:08.130Z,4.90
2018-12-31T23:00:37.138Z,4.90
2018-12-31T23:03:05.573Z,4.90
2018-12-31T23:05:34.082Z,4.90
2018-12-31T23:08:02.507Z,4.90
2018-12-31T23:10:31.233Z,4.90
2018-12-31T23:12:59.666Z,4.90
2018-12-31T23:15:28.092Z,4.90
2018-12-31T23:17:56.519Z,4.90
2018-12-31T23:20:24.986Z,4.90
2018-12-31T23:22:53.417Z,4.90
2018-12-31T23:25:21.850Z,4.90
2018-12-31T23:27:50.299Z,4.80
2018-12-31T23:30:18.741Z,4.80
2018-12-31T23:32:47.177Z,4.80
2018-12-31T23:35:15.623Z,4.80
2018-12-31T23:37:44.506Z,4.80
2018-12-31T23:40:12.934Z,4.80
2018-12-31T23:42:42.265Z,4.70
2018-12-31T23:45:11.326Z,4.70
2018-12-31T23:47:39.762Z,4.70
2018-12-31T23:50:09.899Z,4.80
2018-12-31T23:52:38.342Z,4.80
2018-12-31T23:55:07.413Z,4.80
2018-12-31T23:57:36.201Z,4.80
